Raven, Kentucky
Current Conditions -  °F | °C
As of 12:35 AM on Thursday 18 Dec 2014 (Local Time) from KPBX Reporting Station
Overcast Overcast  
Wind Chill: -1°   Ceiling: 1500
Heat Index: -1°   Visibility: 10mi
Dew Point: -3°   Wind: 3mph
Humidity: 84%   Direction: 290°WNW
Pressure: 30.2"   Gusts: NA
Location:  37.41°N, 82.8°W
Report Text: KPBX 180535Z AUTO 29003KT 10SM OVC015 M01/M03 A3020 RMK AO2 T10071031
Loading
Personal Weather Stations






























Interactive Weather Map New forecast layout! Learn more

10-Day Weather Forecast

Advertisements
Track Severe Weather on mobile